Time;durP1;ratioP1;P1;durP2;ratioP2;P2;SDS_P1;SDS_P2;PMS_P1;PMS_P2;Temp;Humidity;BMP_temperature;BMP_pressure;BME280_temperature;BME280_humidity;BME280_pressure;Samples;Min_cycle;Max_cycle;Signal;HPM_P1;HPM_P2
2023/05/26 00:00:09;;;;;;;26.92;5.10;;;;;;;;;;4933412;28;20083;-74
2023/05/26 00:02:36;;;;;;;31.55;6.30;;;;;;;;;;4921101;29;20039;-74
2023/05/26 00:05:13;;;;;;;23.27;4.70;;;;;;;;;;4917831;29;20024;-77
2023/05/26 00:07:42;;;;;;;31.23;5.78;;;;;;;;;;4918548;29;20031;-73
2023/05/26 00:10:08;;;;;;;35.22;7.70;;;;;;;;;;4916306;29;20027;-73
2023/05/26 00:12:34;;;;;;;29.60;8.77;;;;;;;;;;4935601;28;20039;-76
2023/05/26 00:15:00;;;;;;;24.30;5.60;;;;;;;;;;4918656;29;20147;-75
2023/05/26 00:17:27;;;;;;;21.75;4.75;;;;;;;;;;4918350;29;20051;-74
2023/05/26 00:19:53;;;;;;;26.95;4.97;;;;;;;;;;4927309;29;20048;-74
2023/05/26 00:22:19;;;;;;;21.23;5.22;;;;;;;;;;4923983;29;20150;-74
2023/05/26 00:24:46;;;;;;;20.65;5.38;;;;;;;;;;4917927;29;20036;-74
2023/05/26 00:27:12;;;;;;;18.98;4.53;;;;;;;;;;4934320;29;20448;-74
2023/05/26 00:29:38;;;;;;;22.77;5.00;;;;;;;;;;4914233;29;20040;-73
2023/05/26 00:32:05;;;;;;;22.73;4.65;;;;;;;;;;4919063;29;20040;-74
2023/05/26 00:34:33;;;;;;;20.20;5.05;;;;;;;;;;4915426;29;20055;-74
2023/05/26 00:37:00;;;;;;;27.90;6.95;;;;;;;;;;4953592;28;20040;-74
2023/05/26 00:39:26;;;;;;;21.73;5.00;;;;;;;;;;4921224;29;20024;-74
2023/05/26 00:41:52;;;;;;;28.83;5.78;;;;;;;;;;4934522;28;20135;-74
2023/05/26 00:44:18;;;;;;;30.05;6.03;;;;;;;;;;4933263;28;20055;-74
2023/05/26 00:46:44;;;;;;;24.83;4.53;;;;;;;;;;4932696;28;20119;-74
2023/05/26 00:49:10;;;;;;;43.92;7.03;;;;;;;;;;4919695;29;20546;-74
2023/05/26 00:51:36;;;;;;;27.30;5.72;;;;;;;;;;4940535;28;20041;-74
2023/05/26 00:54:02;;;;;;;26.48;5.95;;;;;;;;;;4936992;28;20258;-74
2023/05/26 00:56:29;;;;;;;29.00;4.80;;;;;;;;;;4936067;28;20126;-74
2023/05/26 00:58:56;;;;;;;29.02;4.68;;;;;;;;;;4918114;29;20032;-74
2023/05/26 01:01:22;;;;;;;25.33;5.88;;;;;;;;;;4923828;29;20048;-74
2023/05/26 01:03:48;;;;;;;31.25;5.75;;;;;;;;;;4916303;29;20128;-74
2023/05/26 01:06:15;;;;;;;33.28;6.65;;;;;;;;;;4917216;29;20680;-74
2023/05/26 01:08:41;;;;;;;33.28;5.78;;;;;;;;;;4933911;28;20040;-74
2023/05/26 01:11:10;;;;;;;25.25;5.28;;;;;;;;;;4917604;29;20039;-74
2023/05/26 01:13:45;;;;;;;43.95;7.72;;;;;;;;;;4920471;29;20027;-74
2023/05/26 01:16:12;;;;;;;29.75;4.82;;;;;;;;;;4916356;29;20032;-75
2023/05/26 01:18:52;;;;;;;30.83;5.18;;;;;;;;;;4919203;29;20099;-73
2023/05/26 01:21:21;;;;;;;35.67;5.68;;;;;;;;;;4919537;29;20043;-74
2023/05/26 01:24:00;;;;;;;31.05;6.70;;;;;;;;;;4925028;29;20470;-74
2023/05/26 01:26:37;;;;;;;40.28;5.60;;;;;;;;;;4939956;29;20517;-75
2023/05/26 01:29:10;;;;;;;28.55;5.60;;;;;;;;;;4915963;29;20418;-74
2023/05/26 01:31:38;;;;;;;28.33;5.45;;;;;;;;;;4931507;28;20483;-74
2023/05/26 01:34:04;;;;;;;37.83;5.15;;;;;;;;;;4931472;28;20048;-74
2023/05/26 01:36:30;;;;;;;44.08;6.45;;;;;;;;;;4918899;29;20036;-74
2023/05/26 01:38:56;;;;;;;32.72;7.03;;;;;;;;;;4916075;29;20445;-74
2023/05/26 01:41:31;;;;;;;36.38;8.63;;;;;;;;;;4916924;29;20043;-74
2023/05/26 01:44:08;;;;;;;34.47;5.65;;;;;;;;;;4915478;29;20041;-74
2023/05/26 01:46:49;;;;;;;27.05;4.93;;;;;;;;;;4918101;29;20020;-74
2023/05/26 01:49:16;;;;;;;29.98;5.18;;;;;;;;;;4917896;29;20043;-74
2023/05/26 01:51:51;;;;;;;38.40;7.25;;;;;;;;;;4917446;29;20032;-74
2023/05/26 01:54:18;;;;;;;32.50;5.47;;;;;;;;;;4922686;29;20038;-74
2023/05/26 01:56:45;;;;;;;24.45;4.35;;;;;;;;;;4925189;29;20617;-74
2023/05/26 01:59:12;;;;;;;28.63;4.95;;;;;;;;;;4939575;28;20055;-75
2023/05/26 02:01:38;;;;;;;23.27;5.68;;;;;;;;;;4916247;29;20130;-74
2023/05/26 02:04:04;;;;;;;30.38;5.45;;;;;;;;;;4928640;28;20537;-74
2023/05/26 02:06:30;;;;;;;28.02;5.03;;;;;;;;;;4916319;29;20040;-75
2023/05/26 02:08:57;;;;;;;28.30;5.90;;;;;;;;;;4919448;29;20378;-74
2023/05/26 02:11:23;;;;;;;28.88;5.80;;;;;;;;;;4914512;29;20056;-74
2023/05/26 02:13:49;;;;;;;26.35;3.92;;;;;;;;;;4916073;29;20359;-74
2023/05/26 02:16:16;;;;;;;29.05;6.63;;;;;;;;;;4916727;29;20395;-74
2023/05/26 02:18:45;;;;;;;30.30;4.80;;;;;;;;;;4914426;29;20463;-73
2023/05/26 02:21:11;;;;;;;26.23;4.57;;;;;;;;;;4917369;29;20026;-74
2023/05/26 02:23:38;;;;;;;26.50;6.70;;;;;;;;;;4913266;29;20514;-74
2023/05/26 02:26:04;;;;;;;25.90;5.28;;;;;;;;;;4915149;29;22757;-73
2023/05/26 02:28:30;;;;;;;26.58;4.85;;;;;;;;;;4914966;29;20112;-74
2023/05/26 02:30:56;;;;;;;24.63;4.97;;;;;;;;;;4922587;29;20032;-73
2023/05/26 02:33:22;;;;;;;25.15;5.05;;;;;;;;;;4933424;29;20059;-73
2023/05/26 02:35:48;;;;;;;29.88;7.22;;;;;;;;;;4917438;29;20102;-73
2023/05/26 02:38:14;;;;;;;25.65;4.57;;;;;;;;;;4925856;29;20029;-74
2023/05/26 02:40:40;;;;;;;21.42;4.65;;;;;;;;;;4915138;29;20421;-73
2023/05/26 02:43:06;;;;;;;27.23;5.00;;;;;;;;;;4948694;28;20106;-73
2023/05/26 02:45:32;;;;;;;24.83;4.70;;;;;;;;;;4934652;28;20031;-73
2023/05/26 02:47:58;;;;;;;24.67;4.90;;;;;;;;;;4925261;29;20040;-74
2023/05/26 02:50:24;;;;;;;17.25;4.00;;;;;;;;;;4919912;29;20040;-73
2023/05/26 02:52:50;;;;;;;28.35;5.03;;;;;;;;;;4919108;29;20047;-74
2023/05/26 02:55:16;;;;;;;26.25;5.35;;;;;;;;;;4920448;29;20506;-75
2023/05/26 02:57:42;;;;;;;20.65;5.88;;;;;;;;;;4922700;29;20036;-74
2023/05/26 03:00:11;;;;;;;33.13;5.82;;;;;;;;;;4930070;29;20135;-74
2023/05/26 03:02:37;;;;;;;30.75;4.90;;;;;;;;;;4922591;29;20043;-74
2023/05/26 03:05:04;;;;;;;27.02;5.05;;;;;;;;;;4923411;29;20040;-75
2023/05/26 03:07:30;;;;;;;21.77;4.72;;;;;;;;;;4923205;29;20119;-75
2023/05/26 03:09:56;;;;;;;29.17;5.22;;;;;;;;;;4931493;29;20175;-75
2023/05/26 03:12:22;;;;;;;33.55;5.03;;;;;;;;;;4923138;29;20095;-75
2023/05/26 03:14:47;;;;;;;27.75;4.28;;;;;;;;;;4916607;29;20087;-75
2023/05/26 03:17:13;;;;;;;21.38;5.03;;;;;;;;;;4923566;29;20341;-75
2023/05/26 03:19:39;;;;;;;24.02;4.50;;;;;;;;;;4935369;29;20079;-74
2023/05/26 03:22:06;;;;;;;37.65;6.97;;;;;;;;;;4918416;29;21366;-75
2023/05/26 03:24:32;;;;;;;27.40;4.90;;;;;;;;;;4950241;28;20047;-75
2023/05/26 03:26:58;;;;;;;23.23;4.47;;;;;;;;;;4920412;29;20513;-75
2023/05/26 03:29:27;;;;;;;19.25;4.30;;;;;;;;;;4932363;28;20185;-74
2023/05/26 03:31:53;;;;;;;34.33;5.70;;;;;;;;;;4935664;28;20055;-74
2023/05/26 03:34:19;;;;;;;24.88;5.10;;;;;;;;;;4928437;29;20505;-75
2023/05/26 03:36:45;;;;;;;28.00;4.88;;;;;;;;;;4921455;29;20042;-74
2023/05/26 03:39:11;;;;;;;19.48;4.63;;;;;;;;;;4917792;29;20040;-74
2023/05/26 03:41:38;;;;;;;24.55;4.75;;;;;;;;;;4922316;29;20390;-74
2023/05/26 03:44:05;;;;;;;19.23;3.40;;;;;;;;;;4920189;29;20043;-73
2023/05/26 03:46:31;;;;;;;28.90;5.05;;;;;;;;;;4922619;29;20106;-74
2023/05/26 03:48:57;;;;;;;21.30;4.30;;;;;;;;;;4919413;29;20072;-74
2023/05/26 03:51:23;;;;;;;28.38;4.93;;;;;;;;;;4949236;28;20513;-75
2023/05/26 03:53:49;;;;;;;20.02;4.45;;;;;;;;;;4921766;29;20037;-74
2023/05/26 03:56:15;;;;;;;19.00;4.10;;;;;;;;;;4924356;29;20036;-75
2023/05/26 03:58:41;;;;;;;35.25;4.88;;;;;;;;;;4919825;29;20457;-74
2023/05/26 04:01:07;;;;;;;24.75;5.20;;;;;;;;;;4935480;28;20119;-74
2023/05/26 04:03:33;;;;;;;28.00;5.57;;;;;;;;;;4920872;29;20514;-74
2023/05/26 04:06:00;;;;;;;23.27;4.40;;;;;;;;;;4918211;29;20039;-74
2023/05/26 04:08:30;;;;;;;30.70;5.38;;;;;;;;;;4929126;29;20471;-75
2023/05/26 04:10:56;;;;;;;22.35;5.25;;;;;;;;;;4919792;29;20389;-75
2023/05/26 04:13:22;;;;;;;18.00;5.47;;;;;;;;;;4944397;28;20036;-75
2023/05/26 04:15:48;;;;;;;25.80;4.32;;;;;;;;;;4918863;29;20398;-74
2023/05/26 04:18:14;;;;;;;18.67;4.28;;;;;;;;;;4912380;29;20032;-76
2023/05/26 04:20:40;;;;;;;30.77;5.50;;;;;;;;;;4921525;29;20040;-74
2023/05/26 04:23:06;;;;;;;25.70;5.35;;;;;;;;;;4920290;29;20036;-75
2023/05/26 04:25:33;;;;;;;31.33;5.88;;;;;;;;;;4937435;29;20043;-74
2023/05/26 04:27:59;;;;;;;22.55;5.07;;;;;;;;;;4924761;29;20066;-74
2023/05/26 04:30:25;;;;;;;26.02;4.40;;;;;;;;;;4920342;29;20470;-74
2023/05/26 04:32:51;;;;;;;35.40;4.05;;;;;;;;;;4922525;29;20035;-74
2023/05/26 04:35:20;;;;;;;30.40;5.32;;;;;;;;;;4922788;29;20066;-74
2023/05/26 04:37:48;;;;;;;25.58;4.63;;;;;;;;;;4927267;29;20055;-74
2023/05/26 04:40:14;;;;;;;25.02;4.90;;;;;;;;;;4927797;29;20526;-75
2023/05/26 04:42:40;;;;;;;28.92;5.03;;;;;;;;;;4925185;29;20542;-74
2023/05/26 04:45:08;;;;;;;39.20;6.50;;;;;;;;;;4926223;29;20118;-74
2023/05/26 04:47:34;;;;;;;26.30;4.78;;;;;;;;;;4925017;29;20059;-75
2023/05/26 04:50:01;;;;;;;27.17;3.90;;;;;;;;;;4925666;29;20075;-74
2023/05/26 04:52:27;;;;;;;25.08;4.40;;;;;;;;;;4937711;28;20159;-74
2023/05/26 04:54:54;;;;;;;26.42;5.00;;;;;;;;;;4922749;29;20107;-74
2023/05/26 04:57:20;;;;;;;27.50;5.53;;;;;;;;;;4923142;29;20036;-74
2023/05/26 04:59:46;;;;;;;31.90;4.97;;;;;;;;;;4922470;29;21264;-74
2023/05/26 05:02:13;;;;;;;27.75;6.63;;;;;;;;;;4922679;29;20094;-74
2023/05/26 05:04:42;;;;;;;29.15;5.80;;;;;;;;;;4923819;29;20028;-74
2023/05/26 05:07:08;;;;;;;23.52;3.92;;;;;;;;;;4926205;29;20103;-75
2023/05/26 05:09:34;;;;;;;31.20;5.18;;;;;;;;;;4923438;29;20044;-74
2023/05/26 05:12:01;;;;;;;29.92;5.53;;;;;;;;;;4918284;29;20513;-75
2023/05/26 05:14:27;;;;;;;30.73;5.28;;;;;;;;;;4921668;29;20047;-74
2023/05/26 05:16:53;;;;;;;42.00;5.88;;;;;;;;;;4943379;29;20091;-73
2023/05/26 05:19:19;;;;;;;26.10;4.90;;;;;;;;;;4914967;29;20050;-74
2023/05/26 05:21:45;;;;;;;30.58;4.35;;;;;;;;;;4909708;29;20087;-74
2023/05/26 05:24:11;;;;;;;27.23;5.10;;;;;;;;;;4924203;28;20027;-74
2023/05/26 05:26:37;;;;;;;26.45;4.53;;;;;;;;;;4926432;29;20039;-74
2023/05/26 05:29:04;;;;;;;30.08;6.13;;;;;;;;;;4945000;28;20043;-74
2023/05/26 05:31:30;;;;;;;27.55;6.20;;;;;;;;;;4926915;29;20440;-75
2023/05/26 05:33:56;;;;;;;31.90;6.50;;;;;;;;;;4924767;29;20194;-75
2023/05/26 05:36:22;;;;;;;31.92;4.65;;;;;;;;;;4935508;29;20390;-74
2023/05/26 05:38:48;;;;;;;35.42;5.90;;;;;;;;;;4930421;29;20039;-73
2023/05/26 05:41:14;;;;;;;20.65;4.43;;;;;;;;;;4924032;29;20043;-76
2023/05/26 05:43:40;;;;;;;30.38;5.63;;;;;;;;;;4923885;29;20032;-74
2023/05/26 05:46:06;;;;;;;26.55;5.18;;;;;;;;;;4920346;29;20039;-74
2023/05/26 05:48:32;;;;;;;25.08;5.68;;;;;;;;;;4923252;29;20374;-74
2023/05/26 05:51:00;;;;;;;20.33;4.15;;;;;;;;;;4926053;29;20172;-74
2023/05/26 05:53:26;;;;;;;25.60;4.78;;;;;;;;;;4924358;29;20040;-74
2023/05/26 05:55:52;;;;;;;30.48;4.97;;;;;;;;;;4925251;29;20361;-74
2023/05/26 05:58:18;;;;;;;26.90;4.95;;;;;;;;;;4921256;29;20040;-74
2023/05/26 06:00:44;;;;;;;31.13;5.57;;;;;;;;;;4949753;28;20171;-73
2023/05/26 06:03:10;;;;;;;29.13;4.78;;;;;;;;;;4919183;29;20052;-74
2023/05/26 06:05:36;;;;;;;30.55;8.15;;;;;;;;;;4928855;29;20059;-75
2023/05/26 06:08:02;;;;;;;31.90;6.53;;;;;;;;;;4927614;28;20032;-75
2023/05/26 06:10:28;;;;;;;36.92;4.75;;;;;;;;;;4950995;28;20051;-74
2023/05/26 06:12:54;;;;;;;45.55;7.43;;;;;;;;;;4925647;28;20118;-75
2023/05/26 06:15:21;;;;;;;33.30;5.90;;;;;;;;;;4912379;29;20069;-75
2023/05/26 06:17:47;;;;;;;24.55;4.18;;;;;;;;;;4926743;29;20051;-75
2023/05/26 06:20:13;;;;;;;29.08;4.95;;;;;;;;;;4930768;29;20075;-75
2023/05/26 06:22:39;;;;;;;35.17;6.80;;;;;;;;;;4924606;29;20052;-75
2023/05/26 06:25:05;;;;;;;23.35;4.03;;;;;;;;;;4942181;28;20039;-77
2023/05/26 06:27:31;;;;;;;21.98;4.72;;;;;;;;;;4927953;29;20044;-79
2023/05/26 06:29:57;;;;;;;21.20;5.32;;;;;;;;;;4925305;29;20051;-79
2023/05/26 06:32:23;;;;;;;25.00;4.82;;;;;;;;;;4955748;28;20131;-79
2023/05/26 06:34:49;;;;;;;28.95;5.45;;;;;;;;;;4926341;29;20518;-79
2023/05/26 06:37:15;;;;;;;22.13;4.32;;;;;;;;;;4928204;29;20039;-80
2023/05/26 06:39:41;;;;;;;30.05;4.85;;;;;;;;;;4927118;29;20489;-78
2023/05/26 06:42:07;;;;;;;25.58;5.55;;;;;;;;;;4934188;29;20031;-77
2023/05/26 06:44:34;;;;;;;32.42;6.18;;;;;;;;;;4925965;29;20190;-75
2023/05/26 06:47:00;;;;;;;27.25;4.05;;;;;;;;;;4931326;29;20032;-77
2023/05/26 06:49:26;;;;;;;25.67;7.70;;;;;;;;;;4930160;29;20048;-77
2023/05/26 06:51:52;;;;;;;27.05;5.15;;;;;;;;;;4933133;29;20110;-77
2023/05/26 06:54:18;;;;;;;24.92;3.90;;;;;;;;;;4946677;28;20039;-76
2023/05/26 06:56:44;;;;;;;23.73;4.95;;;;;;;;;;4927366;29;20036;-77
2023/05/26 06:59:10;;;;;;;15.98;4.88;;;;;;;;;;4927654;29;20126;-76
2023/05/26 07:01:36;;;;;;;20.42;3.60;;;;;;;;;;4940134;29;20031;-75
2023/05/26 07:04:02;;;;;;;20.75;4.13;;;;;;;;;;4931941;29;20031;-76
2023/05/26 07:06:28;;;;;;;17.88;4.00;;;;;;;;;;4930986;28;20123;-75
2023/05/26 07:08:54;;;;;;;14.65;3.42;;;;;;;;;;4944008;28;20048;-75
2023/05/26 07:11:21;;;;;;;20.02;3.60;;;;;;;;;;4927714;29;20090;-75
2023/05/26 07:13:47;;;;;;;12.85;3.15;;;;;;;;;;4926499;29;20173;-76
2023/05/26 07:16:13;;;;;;;24.67;4.13;;;;;;;;;;4958389;28;20078;-76
2023/05/26 07:18:39;;;;;;;17.00;4.13;;;;;;;;;;4945112;28;20031;-76
2023/05/26 07:21:05;;;;;;;21.27;4.22;;;;;;;;;;4927505;29;20134;-75
2023/05/26 07:23:31;;;;;;;16.80;3.85;;;;;;;;;;4925603;29;20123;-75
2023/05/26 07:25:57;;;;;;;22.73;5.30;;;;;;;;;;4941108;29;20024;-76
2023/05/26 07:28:23;;;;;;;24.35;8.77;;;;;;;;;;4934844;29;20043;-76
2023/05/26 07:30:49;;;;;;;17.25;3.80;;;;;;;;;;4936176;29;20047;-74
2023/05/26 07:33:15;;;;;;;18.52;3.70;;;;;;;;;;4928828;29;20123;-76
2023/05/26 07:35:41;;;;;;;13.15;3.60;;;;;;;;;;4921504;29;20159;-76
2023/05/26 07:38:08;;;;;;;19.20;3.88;;;;;;;;;;4922810;29;20063;-78
2023/05/26 07:40:37;;;;;;;18.73;4.38;;;;;;;;;;4952226;28;20050;-77
2023/05/26 07:43:03;;;;;;;17.35;4.03;;;;;;;;;;4931472;29;20032;-78
2023/05/26 07:45:30;;;;;;;13.85;3.50;;;;;;;;;;4953335;28;20162;-78
2023/05/26 07:47:56;;;;;;;25.13;4.50;;;;;;;;;;4943305;29;20060;-78
2023/05/26 07:50:22;;;;;;;12.20;3.08;;;;;;;;;;4930823;29;20056;-77
2023/05/26 07:52:48;;;;;;;20.35;4.22;;;;;;;;;;4933270;29;20043;-78
2023/05/26 07:55:14;;;;;;;16.48;3.47;;;;;;;;;;4932644;29;20037;-80
2023/05/26 07:57:40;;;;;;;16.52;3.25;;;;;;;;;;4933571;29;20046;-75
2023/05/26 08:00:06;;;;;;;11.25;3.08;;;;;;;;;;4929764;29;20044;-76
2023/05/26 08:02:32;;;;;;;11.52;2.47;;;;;;;;;;4919890;29;20055;-75
2023/05/26 08:04:58;;;;;;;20.63;3.70;;;;;;;;;;4921548;29;20130;-75
2023/05/26 08:07:24;;;;;;;21.00;7.45;;;;;;;;;;4933437;29;20067;-77
2023/05/26 08:09:52;;;;;;;17.42;4.80;;;;;;;;;;4930028;29;20050;-78
2023/05/26 08:12:18;;;;;;;13.75;3.67;;;;;;;;;;4942141;29;20055;-77
2023/05/26 08:14:44;;;;;;;11.20;2.85;;;;;;;;;;4922620;29;20086;-75
2023/05/26 08:17:10;;;;;;;13.65;3.85;;;;;;;;;;4936457;29;20036;-74
2023/05/26 08:19:36;;;;;;;16.88;3.15;;;;;;;;;;4934833;29;20034;-77
2023/05/26 08:22:02;;;;;;;16.63;3.08;;;;;;;;;;4945469;29;20087;-78
2023/05/26 08:24:28;;;;;;;21.50;3.67;;;;;;;;;;4927686;29;20504;-78
2023/05/26 08:26:54;;;;;;;17.15;3.67;;;;;;;;;;4943296;28;20146;-78
2023/05/26 08:29:22;;;;;;;9.32;3.15;;;;;;;;;;4933662;29;20087;-78
2023/05/26 08:31:48;;;;;;;10.70;2.75;;;;;;;;;;4926656;29;20042;-78
2023/05/26 08:34:14;;;;;;;14.23;3.38;;;;;;;;;;4931943;29;20449;-79
2023/05/26 08:36:40;;;;;;;12.15;3.53;;;;;;;;;;4929259;29;20545;-78
2023/05/26 08:39:06;;;;;;;15.10;3.58;;;;;;;;;;4930936;29;20103;-78
2023/05/26 08:41:37;;;;;;;13.07;3.03;;;;;;;;;;4931303;29;20031;-77
2023/05/26 08:44:05;;;;;;;16.23;3.40;;;;;;;;;;4931209;29;20032;-78
2023/05/26 08:46:32;;;;;;;12.65;3.50;;;;;;;;;;4922725;29;20386;-77
2023/05/26 08:48:59;;;;;;;11.60;3.20;;;;;;;;;;4928623;29;20118;-78
2023/05/26 08:51:25;;;;;;;15.10;3.08;;;;;;;;;;4940507;29;20462;-79
2023/05/26 08:53:51;;;;;;;18.33;3.90;;;;;;;;;;4939355;29;20042;-79
2023/05/26 08:56:17;;;;;;;12.38;3.47;;;;;;;;;;4926899;28;20095;-80
2023/05/26 08:58:44;;;;;;;11.57;2.67;;;;;;;;;;4930172;29;20114;-78
2023/05/26 09:01:10;;;;;;;12.10;3.42;;;;;;;;;;4928290;29;20027;-80
2023/05/26 09:03:36;;;;;;;14.43;3.67;;;;;;;;;;4921136;29;20036;-80
2023/05/26 09:06:02;;;;;;;10.02;3.15;;;;;;;;;;4925280;29;20437;-79
2023/05/26 09:08:29;;;;;;;14.02;3.75;;;;;;;;;;4924034;29;20047;-79
2023/05/26 09:10:55;;;;;;;16.45;3.75;;;;;;;;;;4928173;29;20039;-80
2023/05/26 09:13:21;;;;;;;16.67;3.35;;;;;;;;;;4943749;29;20027;-79
2023/05/26 09:15:53;;;;;;;16.50;3.03;;;;;;;;;;4928602;29;20119;-77
2023/05/26 09:18:19;;;;;;;10.52;2.67;;;;;;;;;;4929980;29;20159;-79
2023/05/26 09:20:47;;;;;;;13.25;3.45;;;;;;;;;;4928878;29;20114;-80
2023/05/26 09:23:14;;;;;;;10.27;3.67;;;;;;;;;;4940884;29;20035;-79
2023/05/26 09:25:41;;;;;;;14.18;3.78;;;;;;;;;;4930514;29;20118;-78
2023/05/26 09:28:09;;;;;;;10.55;3.10;;;;;;;;;;4942298;29;20031;-79
2023/05/26 09:30:44;;;;;;;13.57;3.10;;;;;;;;;;4930300;29;20473;-78
2023/05/26 09:33:14;;;;;;;14.55;3.42;;;;;;;;;;4940251;29;20043;-79
2023/05/26 09:35:42;;;;;;;13.55;3.38;;;;;;;;;;4933188;29;20449;-79
2023/05/26 09:38:08;;;;;;;13.63;3.05;;;;;;;;;;4928382;29;20498;-78
2023/05/26 09:40:35;;;;;;;13.75;3.10;;;;;;;;;;4928465;29;20489;-77
2023/05/26 09:43:01;;;;;;;18.40;4.07;;;;;;;;;;4959887;28;20038;-78
2023/05/26 09:45:34;;;;;;;8.48;2.90;;;;;;;;;;4935055;29;20035;-78
2023/05/26 09:48:00;;;;;;;15.60;3.65;;;;;;;;;;4926605;29;20126;-79
2023/05/26 09:50:26;;;;;;;15.70;3.45;;;;;;;;;;4930190;29;20051;-78
2023/05/26 09:52:52;;;;;;;16.67;3.70;;;;;;;;;;4927152;29;20118;-79
2023/05/26 09:55:18;;;;;;;16.35;3.22;;;;;;;;;;4924898;29;20050;-79
2023/05/26 09:57:48;;;;;;;8.95;2.78;;;;;;;;;;4932612;29;20090;-77
2023/05/26 10:00:18;;;;;;;15.90;4.00;;;;;;;;;;4940440;28;20040;-79
2023/05/26 10:02:45;;;;;;;15.63;5.00;;;;;;;;;;4921955;29;20032;-78
2023/05/26 10:05:12;;;;;;;17.92;4.35;;;;;;;;;;4920924;29;20073;-78
2023/05/26 10:07:40;;;;;;;19.63;3.40;;;;;;;;;;4921353;29;20031;-79
2023/05/26 10:10:08;;;;;;;14.10;3.63;;;;;;;;;;4945213;28;20122;-78
2023/05/26 10:12:35;;;;;;;13.13;3.40;;;;;;;;;;4920275;29;20038;-76
2023/05/26 10:15:01;;;;;;;14.32;3.65;;;;;;;;;;4922671;29;20355;-76
2023/05/26 10:17:28;;;;;;;13.30;3.70;;;;;;;;;;4928147;29;20041;-75
2023/05/26 10:19:55;;;;;;;13.02;3.97;;;;;;;;;;4932723;29;20028;-76
2023/05/26 10:22:39;;;;;;;11.55;3.22;;;;;;;;;;4927753;29;20031;-75
2023/05/26 10:25:16;;;;;;;14.30;3.30;;;;;;;;;;4924024;29;20387;-77
2023/05/26 10:27:46;;;;;;;13.30;3.50;;;;;;;;;;4918849;29;20136;-75
2023/05/26 10:30:16;;;;;;;14.45;3.38;;;;;;;;;;4924169;29;20545;-75
2023/05/26 10:32:50;;;;;;;16.30;3.17;;;;;;;;;;4928004;29;20430;-76
2023/05/26 10:35:30;;;;;;;13.98;4.22;;;;;;;;;;4929280;29;20448;-75
2023/05/26 10:38:10;;;;;;;15.90;3.60;;;;;;;;;;4926524;29;20162;-78
2023/05/26 10:40:37;;;;;;;9.95;3.20;;;;;;;;;;4926672;29;20035;-77
2023/05/26 10:43:14;;;;;;;16.75;3.88;;;;;;;;;;4931252;29;20096;-78
2023/05/26 10:45:54;;;;;;;16.10;3.47;;;;;;;;;;4932818;29;20035;-77
2023/05/26 10:48:20;;;;;;;11.48;3.20;;;;;;;;;;4923240;29;20481;-79
2023/05/26 10:51:09;;;;;;;14.73;4.95;;;;;;;;;;4927377;29;20040;-81
2023/05/26 10:53:36;;;;;;;14.20;3.33;;;;;;;;;;4920166;29;20034;-79
2023/05/26 10:56:03;;;;;;;15.65;3.95;;;;;;;;;;4921483;29;20082;-80
2023/05/26 10:58:31;;;;;;;13.35;4.07;;;;;;;;;;4933593;29;20397;-79
2023/05/26 11:01:04;;;;;;;13.85;3.30;;;;;;;;;;4943770;28;20071;-82
2023/05/26 11:03:35;;;;;;;17.58;3.53;;;;;;;;;;4930260;29;20028;-79
2023/05/26 11:06:02;;;;;;;14.73;2.97;;;;;;;;;;4933706;29;20032;-81
2023/05/26 11:08:33;;;;;;;12.90;2.55;;;;;;;;;;4933214;29;20040;-81
2023/05/26 11:11:00;;;;;;;11.85;3.25;;;;;;;;;;4944374;28;20549;-77
2023/05/26 11:13:38;;;;;;;9.88;3.10;;;;;;;;;;4949160;29;20437;-77
2023/05/26 11:16:18;;;;;;;12.18;3.80;;;;;;;;;;4930168;29;20126;-82
2023/05/26 11:18:48;;;;;;;15.68;3.30;;;;;;;;;;4927266;29;20328;-78
2023/05/26 11:21:15;;;;;;;16.65;3.38;;;;;;;;;;4928111;29;20276;-79
2023/05/26 11:23:41;;;;;;;17.83;3.97;;;;;;;;;;4930491;29;20474;-82
2023/05/26 11:26:12;;;;;;;17.83;3.95;;;;;;;;;;4927449;29;20036;-81
2023/05/26 11:28:44;;;;;;;15.13;3.88;;;;;;;;;;4939438;29;20048;-77
2023/05/26 11:31:12;;;;;;;22.85;8.40;;;;;;;;;;4943764;29;20102;-82
2023/05/26 11:33:39;;;;;;;17.67;5.32;;;;;;;;;;4950055;28;20046;-79
2023/05/26 11:36:05;;;;;;;12.02;3.28;;;;;;;;;;4934964;29;20102;-79
2023/05/26 11:38:31;;;;;;;14.55;3.42;;;;;;;;;;4940278;29;20047;-80
2023/05/26 11:40:58;;;;;;;15.52;3.28;;;;;;;;;;4939316;29;20051;-80
2023/05/26 11:43:24;;;;;;;17.42;3.53;;;;;;;;;;4935716;29;20662;-81
2023/05/26 11:45:53;;;;;;;17.63;3.58;;;;;;;;;;4937958;29;20047;-80
2023/05/26 11:48:19;;;;;;;19.40;3.97;;;;;;;;;;4962758;28;20036;-80
2023/05/26 11:50:45;;;;;;;16.65;4.05;;;;;;;;;;4933251;29;20032;-80
2023/05/26 11:53:11;;;;;;;18.63;3.28;;;;;;;;;;4940520;29;20044;-82
2023/05/26 11:55:37;;;;;;;17.70;3.78;;;;;;;;;;4931013;29;20288;-80
2023/05/26 11:58:03;;;;;;;14.70;3.50;;;;;;;;;;4933813;29;20401;-80
2023/05/26 12:00:31;;;;;;;19.85;3.78;;;;;;;;;;4944402;29;20027;-79
2023/05/26 12:02:57;;;;;;;18.40;3.83;;;;;;;;;;4931594;29;20584;-79
2023/05/26 12:05:28;;;;;;;17.77;3.45;;;;;;;;;;4944174;29;20402;-80
2023/05/26 12:08:07;;;;;;;16.73;4.00;;;;;;;;;;4931703;29;20019;-80
2023/05/26 12:10:34;;;;;;;20.92;4.20;;;;;;;;;;4933901;29;20118;-80
2023/05/26 12:13:00;;;;;;;22.27;4.18;;;;;;;;;;4932163;29;20023;-80
2023/05/26 12:15:26;;;;;;;16.80;4.20;;;;;;;;;;4951678;28;20039;-81
2023/05/26 12:17:53;;;;;;;14.20;3.63;;;;;;;;;;4937515;29;20352;-79
2023/05/26 12:20:19;;;;;;;18.67;4.43;;;;;;;;;;4933223;29;20100;-80
2023/05/26 12:22:49;;;;;;;18.15;4.28;;;;;;;;;;4926932;29;20032;-80
2023/05/26 12:25:21;;;;;;;18.98;4.63;;;;;;;;;;4929323;29;20024;-81
2023/05/26 12:27:48;;;;;;;18.05;4.80;;;;;;;;;;4940726;28;20032;-80
2023/05/26 12:30:40;;;;;;;17.27;3.88;;;;;;;;;;4933416;29;20039;-81
2023/05/26 12:33:06;;;;;;;15.05;4.25;;;;;;;;;;4922798;29;20039;-80
2023/05/26 12:35:32;;;;;;;22.42;4.13;;;;;;;;;;4952080;28;20047;-79
2023/05/26 12:37:58;;;;;;;24.77;5.00;;;;;;;;;;4938916;28;20478;-80
2023/05/26 12:40:24;;;;;;;18.33;3.88;;;;;;;;;;4927457;29;20084;-79
2023/05/26 12:42:50;;;;;;;18.30;3.85;;;;;;;;;;4922348;29;20146;-80
2023/05/26 12:45:16;;;;;;;14.38;3.28;;;;;;;;;;4932565;29;20426;-81
2023/05/26 12:47:42;;;;;;;13.93;3.22;;;;;;;;;;4925545;29;20038;-81
2023/05/26 12:50:08;;;;;;;10.48;3.92;;;;;;;;;;4932500;29;20375;-81
2023/05/26 12:52:34;;;;;;;16.00;4.22;;;;;;;;;;4930944;29;20108;-80
2023/05/26 12:55:00;;;;;;;15.70;3.53;;;;;;;;;;4932401;29;20111;-80
2023/05/26 12:57:27;;;;;;;13.07;3.83;;;;;;;;;;4931864;29;20111;-79
2023/05/26 12:59:53;;;;;;;15.50;4.22;;;;;;;;;;4923161;29;20040;-79
2023/05/26 13:02:19;;;;;;;15.38;3.90;;;;;;;;;;4929207;29;20039;-79
2023/05/26 13:04:45;;;;;;;18.45;4.82;;;;;;;;;;4927509;29;20050;-82
2023/05/26 13:07:11;;;;;;;21.08;4.53;;;;;;;;;;4931841;29;20035;-81
2023/05/26 13:09:37;;;;;;;17.42;4.05;;;;;;;;;;4943830;29;20039;-82
2023/05/26 13:12:03;;;;;;;13.55;3.90;;;;;;;;;;4923121;29;20051;-82
2023/05/26 13:14:29;;;;;;;13.20;4.28;;;;;;;;;;4929521;29;20138;-78
2023/05/26 13:16:55;;;;;;;17.05;4.10;;;;;;;;;;4933910;29;20127;-78
2023/05/26 13:19:21;;;;;;;15.75;3.80;;;;;;;;;;4953096;28;20031;-76
2023/05/26 13:21:47;;;;;;;23.20;4.15;;;;;;;;;;4931477;29;20358;-76
2023/05/26 13:24:13;;;;;;;19.17;4.72;;;;;;;;;;4930012;29;20054;-77
2023/05/26 13:26:39;;;;;;;22.17;4.53;;;;;;;;;;4957496;28;20028;-77
2023/05/26 13:29:09;;;;;;;14.25;3.58;;;;;;;;;;4928688;29;20043;-74
2023/05/26 13:31:35;;;;;;;16.75;3.78;;;;;;;;;;4956011;28;20347;-75
2023/05/26 13:34:01;;;;;;;20.13;5.63;;;;;;;;;;4918671;29;20100;-75
2023/05/26 13:36:27;;;;;;;16.65;6.50;;;;;;;;;;4924751;28;20495;-77
2023/05/26 13:38:53;;;;;;;14.68;4.18;;;;;;;;;;4920770;29;20035;-76
2023/05/26 13:41:19;;;;;;;19.50;4.35;;;;;;;;;;4920111;29;20039;-75
2023/05/26 13:43:45;;;;;;;21.23;3.85;;;;;;;;;;4920661;29;20039;-75
2023/05/26 13:46:11;;;;;;;13.95;4.10;;;;;;;;;;4920611;29;20086;-74
2023/05/26 13:48:37;;;;;;;16.95;4.60;;;;;;;;;;4927696;29;20043;-76
2023/05/26 13:51:03;;;;;;;16.75;3.72;;;;;;;;;;4920436;29;20089;-74
2023/05/26 13:53:29;;;;;;;13.27;3.60;;;;;;;;;;4927060;29;20051;-75
2023/05/26 13:55:55;;;;;;;19.67;4.13;;;;;;;;;;4925571;29;20119;-75
2023/05/26 13:58:21;;;;;;;16.75;3.90;;;;;;;;;;4933449;29;20486;-75
2023/05/26 14:00:47;;;;;;;18.70;4.15;;;;;;;;;;4936616;29;20024;-75
2023/05/26 14:03:13;;;;;;;15.65;3.85;;;;;;;;;;4928238;29;20358;-76
2023/05/26 14:05:42;;;;;;;17.17;4.75;;;;;;;;;;4959827;28;20161;-76
2023/05/26 14:08:08;;;;;;;18.80;4.57;;;;;;;;;;4923878;29;20027;-77
2023/05/26 14:10:34;;;;;;;19.85;4.55;;;;;;;;;;4930109;29;20115;-77
2023/05/26 14:13:00;;;;;;;16.88;4.38;;;;;;;;;;4925848;29;20166;-75
2023/05/26 14:15:28;;;;;;;17.45;3.80;;;;;;;;;;4921937;29;20062;-80
2023/05/26 14:17:54;;;;;;;15.15;3.72;;;;;;;;;;4927167;29;20389;-75
2023/05/26 14:20:20;;;;;;;14.98;3.60;;;;;;;;;;4921724;29;20024;-78
2023/05/26 14:22:46;;;;;;;18.10;4.15;;;;;;;;;;4921725;29;20024;-77
2023/05/26 14:25:12;;;;;;;14.60;3.70;;;;;;;;;;4928987;29;20424;-77
2023/05/26 14:27:38;;;;;;;16.40;4.20;;;;;;;;;;4932122;29;20024;-78
2023/05/26 14:30:05;;;;;;;15.75;3.78;;;;;;;;;;4927230;29;20063;-78